Time;durP1;ratioP1;P1;durP2;ratioP2;P2;SDS_P1;SDS_P2;PMS_P1;PMS_P2;Temp;Humidity;BMP_temperature;BMP_pressure;BME280_temperature;BME280_humidity;BME280_pressure;Samples;Min_cycle;Max_cycle;Signal;HPM_P1;HPM_P2
2022/12/24 00:01:23;;;;;;;38.20;16.88;;;7.20;99.90;;;;;;5947003;23;1101711;-82
2022/12/24 00:03:48;;;;;;;31.70;15.80;;;7.20;99.90;;;;;;6020994;23;20027;-82
2022/12/24 00:06:20;;;;;;;34.03;16.60;;;7.20;99.90;;;;;;5998270;23;20019;-82
2022/12/24 00:08:45;;;;;;;34.20;15.63;;;7.20;99.90;;;;;;5974708;23;20034;-82
2022/12/24 00:11:11;;;;;;;36.08;16.13;;;7.20;99.90;;;;;;5975699;23;20015;-82
2022/12/24 00:13:37;;;;;;;37.65;17.02;;;7.20;99.90;;;;;;5999311;23;20133;-82
2022/12/24 00:16:03;;;;;;;31.33;15.13;;;7.20;99.90;;;;;;5975033;23;20560;-82
2022/12/24 00:18:29;;;;;;;34.53;16.15;;;7.20;99.90;;;;;;5974256;23;20354;-82
2022/12/24 00:20:54;;;;;;;33.92;16.75;;;7.20;99.90;;;;;;5975225;23;20220;-82
2022/12/24 00:23:20;;;;;;;33.35;15.50;;;7.20;99.90;;;;;;5997868;23;20015;-82
2022/12/24 00:25:46;;;;;;;33.88;16.23;;;7.20;99.90;;;;;;5974897;23;20027;-82
2022/12/24 00:28:13;;;;;;;39.28;16.98;;;7.20;99.90;;;;;;5974476;23;20439;-82
2022/12/24 00:30:40;;;;;;;32.63;16.70;;;7.20;99.90;;;;;;5973842;23;20023;-82
2022/12/24 00:33:09;;;;;;;35.80;16.67;;;7.20;99.90;;;;;;5974072;23;20015;-82
2022/12/24 00:35:39;;;;;;;32.05;15.88;;;7.20;99.90;;;;;;5998747;23;20011;-82
2022/12/24 00:38:05;;;;;;;41.33;18.48;;;7.20;99.90;;;;;;5998242;23;20604;-82
2022/12/24 00:40:32;;;;;;;37.03;17.08;;;7.20;99.90;;;;;;5970371;23;20185;-82
2022/12/24 00:42:57;;;;;;;34.92;17.92;;;7.20;99.90;;;;;;5972827;23;20051;-82
2022/12/24 00:45:23;;;;;;;58.47;22.83;;;7.20;99.90;;;;;;5998916;23;20063;-82
2022/12/24 00:47:49;;;;;;;42.55;20.02;;;7.20;99.90;;;;;;5997069;23;20480;-81
2022/12/24 00:50:15;;;;;;;40.58;19.00;;;7.20;99.90;;;;;;5975439;23;20276;-82
2022/12/24 00:52:40;;;;;;;50.22;21.30;;;7.20;99.90;;;;;;5975261;23;20015;-82
2022/12/24 00:55:06;;;;;;;53.72;22.58;;;7.20;99.90;;;;;;5998334;23;20017;-82
2022/12/24 00:57:32;;;;;;;42.00;20.15;;;7.20;99.90;;;;;;5977023;23;20378;-82
2022/12/24 00:59:58;;;;;;;46.83;21.92;;;7.20;99.90;;;;;;5973888;23;20023;-82
2022/12/24 01:02:24;;;;;;;47.88;21.83;;;7.20;99.90;;;;;;5990489;23;20493;-82
2022/12/24 01:07:34;;;;;;;41.55;19.67;;;7.20;99.90;;;;;;6022090;23;20027;-82
2022/12/24 01:10:00;;;;;;;57.33;22.85;;;7.20;99.90;;;;;;6022402;23;20042;-81
2022/12/24 01:12:26;;;;;;;56.00;22.40;;;7.20;99.90;;;;;;6023900;23;20436;-82
2022/12/24 01:14:51;;;;;;;43.17;20.90;;;7.20;99.90;;;;;;5998356;23;20281;-82
2022/12/24 01:17:17;;;;;;;53.33;21.73;;;7.20;99.90;;;;;;5998518;23;20011;-82
2022/12/24 01:19:43;;;;;;;64.55;22.83;;;7.20;99.90;;;;;;6021271;23;20067;-81
2022/12/24 01:22:08;;;;;;;46.10;21.38;;;7.20;99.90;;;;;;5998287;23;20026;-81
2022/12/24 01:24:34;;;;;;;51.13;21.23;;;7.20;99.90;;;;;;6020425;23;20015;-82
2022/12/24 01:26:59;;;;;;;50.17;20.52;;;7.20;99.90;;;;;;5997860;23;20018;-82
2022/12/24 01:29:25;;;;;;;46.67;21.25;;;7.20;99.90;;;;;;5997336;23;20294;-82
2022/12/24 01:31:51;;;;;;;53.05;22.67;;;7.20;99.90;;;;;;6020206;23;20449;-82
2022/12/24 01:34:17;;;;;;;45.45;21.00;;;7.20;99.90;;;;;;6020943;23;20198;-82
2022/12/24 01:36:42;;;;;;;56.55;21.40;;;7.20;99.90;;;;;;5997787;23;20059;-82
2022/12/24 01:39:08;;;;;;;58.88;21.50;;;7.20;99.90;;;;;;6027687;23;20442;-87
2022/12/24 01:44:32;;;;;;;42.38;19.95;;;7.20;99.90;;;;;;6020771;23;20027;-82
2022/12/24 01:47:18;;;;;;;61.72;22.33;;;7.20;99.90;;;;;;6019514;23;20431;-82
2022/12/24 01:49:49;;;;;;;;;;;7.20;99.90;;;;;;5996648;23;20016;-82
2022/12/24 01:52:21;;;;;;;65.43;21.77;;;7.20;99.90;;;;;;6022149;23;20490;-82
2022/12/24 01:55:08;;;;;;;65.57;22.20;;;7.20;99.90;;;;;;5996623;23;20015;-81
2022/12/24 01:57:38;;;;;;;50.25;21.23;;;7.20;99.90;;;;;;6021223;23;20023;-82
2022/12/24 02:00:08;;;;;;;64.25;23.80;;;7.20;99.90;;;;;;5996635;23;20159;-82
2022/12/24 02:02:39;;;;;;;45.90;20.17;;;7.20;99.90;;;;;;5996807;23;20497;-82
2022/12/24 02:05:30;;;;;;;54.90;20.80;;;7.20;99.90;;;;;;6020181;23;20019;-82
2022/12/24 02:07:59;;;;;;;44.22;19.98;;;7.20;99.90;;;;;;6021389;23;20073;-82
2022/12/24 02:10:24;;;;;;;49.13;20.65;;;7.20;99.90;;;;;;5997674;23;20086;-83
2022/12/24 02:12:51;;;;;;;46.33;20.38;;;7.20;99.90;;;;;;5997436;23;20019;-82
2022/12/24 02:15:19;;;;;;;49.55;20.13;;;7.20;99.90;;;;;;5995862;23;20229;-82
2022/12/24 02:18:07;;;;;;;48.40;21.52;;;7.20;99.90;;;;;;5994855;23;20019;-82
2022/12/24 02:20:58;;;;;;;52.38;20.20;;;7.20;99.90;;;;;;5996579;23;20271;-82
2022/12/24 02:23:55;;;;;;;70.70;21.88;;;7.20;99.90;;;;;;6021495;23;20105;-81
2022/12/24 02:26:43;;;;;;;45.50;19.25;;;7.20;99.90;;;;;;6019852;23;20019;-81
2022/12/24 02:29:49;;;;;;;45.38;18.95;;;7.20;99.90;;;;;;6018572;23;20023;-82
2022/12/24 02:32:23;;;;;;;51.58;20.92;;;7.20;99.90;;;;;;6019687;23;20019;-82
2022/12/24 02:35:10;;;;;;;50.85;20.27;;;7.30;99.90;;;;;;5995807;23;20015;-82
2022/12/24 02:37:51;;;;;;;49.58;20.63;;;7.30;99.90;;;;;;6020450;23;20272;-83
2022/12/24 02:40:29;;;;;;;45.45;20.40;;;7.40;99.90;;;;;;5996839;23;20075;-82
2022/12/24 02:42:59;;;;;;;45.85;21.30;;;7.50;99.90;;;;;;5996905;23;20023;-81
2022/12/24 02:45:32;;;;;;;45.25;20.77;;;7.50;99.90;;;;;;5995527;23;20049;-82
2022/12/24 02:47:59;;;;;;;40.97;20.15;;;7.60;99.90;;;;;;5994723;23;20429;-82
2022/12/24 02:50:25;;;;;;;43.42;21.08;;;7.60;99.90;;;;;;5996732;23;20023;-82
2022/12/24 02:52:52;;;;;;;41.92;20.27;;;7.60;99.90;;;;;;5996797;23;20102;-83
2022/12/24 02:55:47;;;;;;;46.55;21.35;;;7.60;99.90;;;;;;5996886;23;20547;-82
2022/12/24 02:58:38;;;;;;;42.15;20.20;;;7.60;99.90;;;;;;5996328;23;20468;-82
2022/12/24 03:01:16;;;;;;;40.70;19.77;;;7.70;99.90;;;;;;5996067;23;20075;-81
2022/12/24 03:03:48;;;;;;;33.47;17.65;;;7.80;99.90;;;;;;6019192;23;20429;-82
2022/12/24 03:06:18;;;;;;;33.22;17.05;;;7.80;99.90;;;;;;5997989;23;20059;-82
2022/12/24 03:08:56;;;;;;;33.78;18.17;;;8.00;99.90;;;;;;5996837;23;20106;-82
2022/12/24 03:11:21;;;;;;;36.17;17.02;;;8.00;99.90;;;;;;5996599;23;20011;-82
2022/12/24 03:13:48;;;;;;;33.83;18.00;;;8.10;99.90;;;;;;5993185;23;20016;-81
2022/12/24 03:16:20;;;;;;;31.17;17.27;;;8.20;99.90;;;;;;5995436;23;20688;-82
2022/12/24 03:18:48;;;;;;;32.63;16.25;;;8.30;99.90;;;;;;5996226;23;20019;-82
2022/12/24 03:21:22;;;;;;;30.10;15.50;;;8.40;99.90;;;;;;5996715;23;20011;-82
2022/12/24 03:23:48;;;;;;;29.23;15.18;;;8.40;99.90;;;;;;6020030;23;20107;-82
2022/12/24 03:26:16;;;;;;;33.85;15.40;;;8.50;99.90;;;;;;5998038;23;20347;-82
2022/12/24 03:28:44;;;;;;;26.92;14.23;;;8.50;99.90;;;;;;5995117;23;20291;-82
2022/12/24 03:31:10;;;;;;;30.83;14.40;;;8.50;99.90;;;;;;5996552;23;20084;-82
2022/12/24 03:33:36;;;;;;;27.95;14.65;;;8.60;99.90;;;;;;5995822;23;20031;-82
2022/12/24 03:36:03;;;;;;;27.08;12.93;;;8.60;99.90;;;;;;5996967;23;20021;-82
2022/12/24 03:38:30;;;;;;;24.35;12.07;;;8.60;99.90;;;;;;5996348;23;20038;-82
2022/12/24 03:40:55;;;;;;;25.75;12.00;;;8.70;99.90;;;;;;6020580;23;20023;-82
2022/12/24 03:43:21;;;;;;;25.25;11.93;;;8.70;99.90;;;;;;6020270;23;20428;-82
2022/12/24 03:45:47;;;;;;;25.83;10.50;;;8.70;99.90;;;;;;5995664;23;20073;-82
2022/12/24 03:48:12;;;;;;;28.90;10.57;;;8.80;99.90;;;;;;6018338;23;20019;-82
2022/12/24 03:50:38;;;;;;;29.52;10.05;;;8.80;99.90;;;;;;6021528;23;20428;-82
2022/12/24 03:53:04;;;;;;;26.25;8.63;;;8.80;99.90;;;;;;6020797;23;20445;-81
2022/12/24 03:55:29;;;;;;;29.45;8.90;;;8.80;99.90;;;;;;5997216;23;20015;-83
2022/12/24 03:57:55;;;;;;;23.30;6.93;;;8.90;99.90;;;;;;6044755;23;20103;-82
2022/12/24 04:00:21;;;;;;;23.58;6.78;;;8.80;99.90;;;;;;5996119;23;20027;-82
2022/12/24 04:02:46;;;;;;;31.50;6.68;;;8.90;99.90;;;;;;6044146;23;20023;-82
2022/12/24 04:05:16;;;;;;;25.90;6.50;;;8.90;99.90;;;;;;5997453;23;20365;-83
2022/12/24 04:07:41;;;;;;;29.35;5.55;;;8.80;99.90;;;;;;6022275;23;20328;-82
2022/12/24 04:10:08;;;;;;;31.52;6.05;;;8.90;99.90;;;;;;5998178;23;20057;-82
2022/12/24 04:12:34;;;;;;;36.17;6.57;;;8.90;99.90;;;;;;5999364;23;20015;-83
2022/12/24 04:15:00;;;;;;;30.67;6.22;;;8.80;99.90;;;;;;6020821;23;20090;-82
2022/12/24 04:17:26;;;;;;;33.80;5.78;;;8.80;99.90;;;;;;6045384;23;20114;-82
2022/12/24 04:19:52;;;;;;;23.58;5.30;;;8.80;99.90;;;;;;5997686;23;20391;-82
2022/12/24 04:22:20;;;;;;;30.75;5.78;;;8.80;99.90;;;;;;5998176;23;20015;-82
2022/12/24 04:24:46;;;;;;;31.95;5.30;;;8.70;99.90;;;;;;5998391;23;20027;-82
2022/12/24 04:27:15;;;;;;;30.50;5.32;;;8.70;99.90;;;;;;5997974;23;20168;-82
2022/12/24 04:29:41;;;;;;;21.10;4.90;;;8.70;99.90;;;;;;6044874;23;20020;-83
2022/12/24 04:32:07;;;;;;;34.22;5.80;;;8.70;99.90;;;;;;5997732;23;20074;-83
2022/12/24 04:34:32;;;;;;;30.60;6.05;;;8.70;99.90;;;;;;5996942;23;20118;-82
2022/12/24 04:36:58;;;;;;;31.48;6.25;;;8.60;99.90;;;;;;6022061;23;20019;-83
2022/12/24 04:39:24;;;;;;;36.85;6.47;;;8.50;99.90;;;;;;6021894;23;20018;-82
2022/12/24 04:41:50;;;;;;;30.23;5.10;;;8.50;99.90;;;;;;6069231;23;20422;-83
2022/12/24 04:44:15;;;;;;;28.83;5.38;;;8.50;99.90;;;;;;5997979;23;20479;-83
2022/12/24 04:46:41;;;;;;;28.40;6.05;;;8.50;99.90;;;;;;6020459;23;20019;-82
2022/12/24 04:49:07;;;;;;;33.67;4.95;;;8.60;99.90;;;;;;6021383;23;20071;-82
2022/12/24 04:51:32;;;;;;;34.05;6.07;;;8.50;99.90;;;;;;6046720;23;20409;-82
2022/12/24 04:53:58;;;;;;;34.97;5.93;;;8.60;99.90;;;;;;5998367;23;20011;-82
2022/12/24 04:56:26;;;;;;;31.98;6.13;;;8.60;99.90;;;;;;6069926;23;20282;-82
2022/12/24 04:58:53;;;;;;;37.88;6.18;;;8.60;99.90;;;;;;5997502;23;20030;-82
2022/12/24 05:01:21;;;;;;;32.35;5.45;;;8.60;99.90;;;;;;5993627;23;20212;-82
2022/12/24 05:03:47;;;;;;;32.80;6.32;;;8.70;99.90;;;;;;5973928;23;20102;-83
2022/12/24 05:06:16;;;;;;;31.55;5.82;;;8.70;99.90;;;;;;5973613;23;20030;-83
2022/12/24 05:08:42;;;;;;;37.33;6.07;;;8.70;99.90;;;;;;5974544;23;20104;-83
2022/12/24 05:11:09;;;;;;;28.33;5.57;;;8.70;99.90;;;;;;5974679;23;20529;-82
2022/12/24 05:13:35;;;;;;;32.05;5.72;;;8.70;99.90;;;;;;5973400;23;20054;-83
2022/12/24 05:16:01;;;;;;;30.63;5.20;;;8.70;99.90;;;;;;6020892;23;20015;-83
2022/12/24 05:18:26;;;;;;;32.92;5.63;;;8.70;99.90;;;;;;5972056;23;20483;-82
2022/12/24 05:20:52;;;;;;;35.17;6.53;;;8.80;99.90;;;;;;6022530;23;20078;-83
2022/12/24 05:26:23;;;;;;;36.70;5.82;;;8.80;99.90;;;;;;6045005;23;20134;-83
2022/12/24 05:28:54;;;;;;;36.22;6.80;;;8.80;99.90;;;;;;5973599;23;20402;-84
2022/12/24 05:31:22;;;;;;;40.15;6.22;;;8.80;99.90;;;;;;5996271;23;20457;-84
2022/12/24 05:33:48;;;;;;;36.92;6.60;;;8.80;99.90;;;;;;5973296;23;20019;-83
2022/12/24 05:36:14;;;;;;;37.40;6.25;;;8.80;99.90;;;;;;6045754;23;20011;-83
2022/12/24 05:38:40;;;;;;;34.65;6.10;;;8.70;99.90;;;;;;6041049;23;20357;-84
2022/12/24 05:41:08;;;;;;;37.05;6.28;;;8.70;99.90;;;;;;5970600;23;20184;-83
2022/12/24 05:43:34;;;;;;;39.30;6.20;;;8.70;99.90;;;;;;6018702;23;20042;-83
2022/12/24 05:46:01;;;;;;;38.42;5.80;;;8.60;99.90;;;;;;5971652;23;20031;-83
2022/12/24 05:48:27;;;;;;;36.53;5.90;;;8.70;99.90;;;;;;5969905;23;20038;-83
2022/12/24 05:50:53;;;;;;;35.50;6.40;;;8.60;99.90;;;;;;5971708;23;20317;-84
2022/12/24 05:53:19;;;;;;;38.60;6.35;;;8.60;99.90;;;;;;5995098;23;20416;-84
2022/12/24 05:55:45;;;;;;;37.70;6.60;;;8.60;99.90;;;;;;5971995;23;20030;-83
2022/12/24 05:58:11;;;;;;;37.90;6.40;;;8.60;99.90;;;;;;5994295;23;20015;-83
2022/12/24 06:00:36;;;;;;;50.65;7.70;;;8.60;99.90;;;;;;6041407;23;20034;-83
2022/12/24 06:03:02;;;;;;;49.08;8.02;;;8.70;99.90;;;;;;6038946;23;20027;-84
2022/12/24 06:05:28;;;;;;;34.45;6.88;;;8.70;99.90;;;;;;6065226;23;20011;-83
2022/12/24 06:07:53;;;;;;;35.97;6.25;;;8.70;99.90;;;;;;6017460;23;20019;-84
2022/12/24 06:10:19;;;;;;;38.40;6.53;;;8.70;99.90;;;;;;6042057;23;20385;-84
2022/12/24 06:12:45;;;;;;;42.42;6.78;;;8.70;99.90;;;;;;6042065;23;20023;-84
2022/12/24 06:15:11;;;;;;;36.97;6.68;;;8.70;99.90;;;;;;6039851;23;20233;-83
2022/12/24 06:17:36;;;;;;;39.28;7.38;;;8.70;99.90;;;;;;6064039;23;20125;-84
2022/12/24 06:20:03;;;;;;;41.40;7.00;;;8.70;99.90;;;;;;6041652;23;20482;-83
2022/12/24 06:22:29;;;;;;;38.22;6.18;;;8.70;99.90;;;;;;6017900;23;20402;-83
2022/12/24 06:24:54;;;;;;;30.70;7.10;;;8.70;99.90;;;;;;5993969;23;20019;-83
2022/12/24 06:27:20;;;;;;;39.83;6.03;;;8.70;99.90;;;;;;5995650;23;20030;-84
2022/12/24 06:29:46;;;;;;;36.05;5.97;;;8.60;99.90;;;;;;6016435;23;20034;-83
2022/12/24 06:32:11;;;;;;;34.42;6.38;;;8.70;99.90;;;;;;6067720;23;20122;-83
2022/12/24 06:34:37;;;;;;;37.80;6.93;;;8.70;99.90;;;;;;6020958;23;20070;-83
2022/12/24 06:37:03;;;;;;;40.10;5.85;;;8.60;99.90;;;;;;6069775;23;20019;-83
2022/12/24 06:39:28;;;;;;;30.70;5.90;;;8.60;99.90;;;;;;6069230;23;20150;-83
2022/12/24 06:41:54;;;;;;;43.63;7.57;;;8.60;99.90;;;;;;6068982;23;20097;-84
2022/12/24 06:44:20;;;;;;;38.88;6.47;;;8.60;99.90;;;;;;5997404;23;20583;-83
2022/12/24 06:46:45;;;;;;;33.75;5.90;;;8.60;99.90;;;;;;5996826;23;20042;-82
2022/12/24 06:49:11;;;;;;;40.08;6.50;;;8.60;99.90;;;;;;6020149;23;20102;-83
2022/12/24 06:51:37;;;;;;;34.42;6.30;;;8.50;99.90;;;;;;5999638;23;20102;-83
2022/12/24 06:54:03;;;;;;;41.85;7.10;;;8.50;99.90;;;;;;6045139;23;20448;-83
2022/12/24 06:56:29;;;;;;;41.13;6.45;;;8.50;99.90;;;;;;6021896;23;20019;-83
2022/12/24 06:58:54;;;;;;;37.90;6.63;;;8.50;99.90;;;;;;6020490;23;20015;-83
2022/12/24 07:01:20;;;;;;;42.25;6.63;;;8.50;99.90;;;;;;6019423;23;20385;-83
2022/12/24 07:03:47;;;;;;;38.70;6.63;;;8.50;99.90;;;;;;6022069;23;20054;-84
2022/12/24 07:06:23;;;;;;;40.85;5.78;;;8.50;99.90;;;;;;5997229;23;20019;-83
2022/12/24 07:08:49;;;;;;;45.05;6.72;;;8.50;99.90;;;;;;6068658;23;20081;-83
2022/12/24 07:11:15;;;;;;;40.67;6.00;;;8.40;99.90;;;;;;6021318;23;20580;-83
2022/12/24 07:13:41;;;;;;;42.35;6.60;;;8.40;99.90;;;;;;6043120;23;20086;-84
2022/12/24 07:16:06;;;;;;;37.83;6.03;;;8.50;99.90;;;;;;6044168;23;20445;-85
2022/12/24 07:18:32;;;;;;;48.55;6.25;;;8.50;99.90;;;;;;6043605;23;20098;-83
2022/12/24 07:20:58;;;;;;;37.67;6.60;;;8.50;99.90;;;;;;6022307;23;20030;-83
2022/12/24 07:23:24;;;;;;;45.25;7.78;;;8.50;99.90;;;;;;6047348;23;20023;-83
2022/12/24 07:25:50;;;;;;;36.00;5.85;;;8.60;99.90;;;;;;5998569;23;20030;-84
2022/12/24 07:28:15;;;;;;;38.03;6.75;;;8.60;99.90;;;;;;5998833;23;20485;-83
2022/12/24 07:30:41;;;;;;;35.55;6.93;;;8.60;99.90;;;;;;5996667;23;20130;-84
2022/12/24 07:33:07;;;;;;;42.53;6.78;;;8.60;99.90;;;;;;6042627;23;20423;-83
2022/12/24 07:35:33;;;;;;;40.72;7.03;;;8.60;99.90;;;;;;6021512;23;20070;-83
2022/12/24 07:37:58;;;;;;;33.42;6.82;;;8.60;99.90;;;;;;6044483;23;20019;-83
2022/12/24 07:40:24;;;;;;;47.92;7.15;;;8.70;99.90;;;;;;6045816;23;20066;-83
2022/12/24 07:42:50;;;;;;;52.67;6.68;;;8.70;99.90;;;;;;5999241;23;20030;-84
2022/12/24 07:45:16;;;;;;;43.15;6.38;;;8.70;99.90;;;;;;5998998;23;20275;-83
2022/12/24 07:47:41;;;;;;;43.08;7.18;;;8.70;99.90;;;;;;5998624;23;20030;-83
2022/12/24 07:50:07;;;;;;;42.97;7.35;;;8.70;99.90;;;;;;5998576;23;20101;-83
2022/12/24 07:52:33;;;;;;;50.38;7.82;;;8.70;99.90;;;;;;6023357;23;20015;-83
2022/12/24 07:54:58;;;;;;;43.33;7.40;;;8.80;99.90;;;;;;5999253;23;20546;-83
2022/12/24 07:57:24;;;;;;;40.92;8.93;;;8.80;99.90;;;;;;6046357;23;20015;-83
2022/12/24 07:59:50;;;;;;;44.05;7.50;;;8.90;99.90;;;;;;5999486;23;20018;-83
2022/12/24 08:02:15;;;;;;;47.75;7.55;;;8.90;99.90;;;;;;5999051;23;20429;-83
2022/12/24 08:04:41;;;;;;;45.10;7.60;;;8.90;99.90;;;;;;6021762;23;20099;-84
2022/12/24 08:07:10;;;;;;;47.92;8.50;;;8.90;99.90;;;;;;6048127;23;20019;-83
2022/12/24 08:09:36;;;;;;;47.35;7.30;;;8.90;99.90;;;;;;5999024;23;20320;-83
2022/12/24 08:12:02;;;;;;;38.22;7.30;;;8.90;99.90;;;;;;6046494;23;20023;-83
2022/12/24 08:14:29;;;;;;;46.25;9.10;;;8.90;99.90;;;;;;5998171;23;20090;-83
2022/12/24 08:16:54;;;;;;;42.35;6.88;;;8.90;99.90;;;;;;5997181;23;20089;-84
2022/12/24 08:19:20;;;;;;;47.45;8.60;;;8.90;99.90;;;;;;6045748;23;20434;-83
2022/12/24 08:21:45;;;;;;;37.08;7.25;;;8.80;99.90;;;;;;6022343;23;20161;-83
2022/12/24 08:24:11;;;;;;;46.67;8.75;;;8.90;99.90;;;;;;6020679;23;20106;-83
2022/12/24 08:26:37;;;;;;;38.70;8.18;;;8.90;99.90;;;;;;5997876;23;20023;-83
2022/12/24 08:29:03;;;;;;;45.20;6.97;;;8.90;99.90;;;;;;6044424;23;20450;-82
2022/12/24 08:31:30;;;;;;;40.42;7.03;;;9.00;99.90;;;;;;6041398;23;20027;-84
2022/12/24 08:33:55;;;;;;;35.40;6.50;;;8.90;99.90;;;;;;6021954;23;20446;-83
2022/12/24 08:36:21;;;;;;;44.70;7.32;;;9.00;99.90;;;;;;6045798;23;20540;-83
2022/12/24 08:38:47;;;;;;;40.85;7.60;;;9.00;99.90;;;;;;5997679;23;20461;-83
2022/12/24 08:41:12;;;;;;;41.75;6.85;;;9.00;99.90;;;;;;6045985;23;20019;-83
2022/12/24 08:43:38;;;;;;;38.85;6.93;;;9.10;99.90;;;;;;6069704;23;20015;-83
2022/12/24 08:46:05;;;;;;;40.63;7.00;;;9.00;99.90;;;;;;6021552;23;20330;-83
2022/12/24 08:48:31;;;;;;;43.38;6.95;;;9.10;99.90;;;;;;5998153;23;20299;-83
2022/12/24 08:50:57;;;;;;;39.58;7.57;;;9.00;99.90;;;;;;6046050;23;20034;-83
2022/12/24 08:53:23;;;;;;;39.33;7.90;;;9.10;99.90;;;;;;6046143;23;20098;-83
2022/12/24 08:55:49;;;;;;;40.53;7.63;;;9.10;99.90;;;;;;5998909;23;20075;-84
2022/12/24 08:58:14;;;;;;;34.97;6.40;;;9.10;99.90;;;;;;6069170;23;20011;-83
2022/12/24 09:00:40;;;;;;;34.47;7.18;;;9.20;99.90;;;;;;6044136;23;20023;-83
2022/12/24 09:03:06;;;;;;;37.42;6.80;;;9.20;99.90;;;;;;6045048;23;20038;-83
2022/12/24 09:05:38;;;;;;;27.15;6.32;;;9.20;99.90;;;;;;5975699;23;20019;-83
2022/12/24 09:08:04;;;;;;;36.78;6.25;;;9.30;99.90;;;;;;5974656;23;20074;-84
2022/12/24 09:10:32;;;;;;;38.22;7.30;;;9.30;99.90;;;;;;6046144;23;20019;-84
2022/12/24 09:12:58;;;;;;;40.03;6.68;;;9.30;99.90;;;;;;6046684;23;20438;-83
2022/12/24 09:15:24;;;;;;;34.05;7.72;;;9.30;99.90;;;;;;6022224;23;20184;-83
2022/12/24 09:17:50;;;;;;;35.00;6.60;;;9.30;99.90;;;;;;5974039;23;20019;-83
2022/12/24 09:20:16;;;;;;;33.35;6.55;;;9.30;99.90;;;;;;5974538;23;20267;-83
2022/12/24 09:22:41;;;;;;;34.83;6.47;;;9.40;99.90;;;;;;5997897;23;20453;-84
2022/12/24 09:25:09;;;;;;;35.78;7.38;;;9.40;99.90;;;;;;5973807;23;20019;-84
2022/12/24 09:27:35;;;;;;;34.85;5.82;;;9.50;99.90;;;;;;5975700;23;20038;-84
2022/12/24 09:30:01;;;;;;;39.00;6.32;;;9.60;99.90;;;;;;5974414;23;20098;-84
2022/12/24 09:32:27;;;;;;;37.58;7.72;;;9.50;99.90;;;;;;5998503;23;20098;-83
2022/12/24 09:34:53;;;;;;;34.40;5.95;;;9.50;99.90;;;;;;6044668;23;20015;-84
2022/12/24 09:37:19;;;;;;;37.72;6.43;;;9.50;99.90;;;;;;5973924;23;20015;-83
2022/12/24 09:39:44;;;;;;;36.45;7.15;;;9.50;99.90;;;;;;6046225;23;20102;-83
2022/12/24 09:42:19;;;;;;;33.63;5.70;;;9.50;99.90;;;;;;6021783;23;20023;-84
2022/12/24 09:45:07;;;;;;;31.77;5.85;;;9.50;99.90;;;;;;6044657;23;20033;-83
2022/12/24 09:47:43;;;;;;;41.58;6.95;;;9.50;99.90;;;;;;5973927;23;20008;-84
2022/12/24 09:50:36;;;;;;;37.20;6.43;;;9.50;99.90;;;;;;5972811;23;20026;-83
2022/12/24 09:53:12;;;;;;;39.70;7.00;;;9.50;99.90;;;;;;5973356;23;20021;-84
2022/12/24 09:55:48;;;;;;;33.67;6.75;;;9.50;99.90;;;;;;5973819;23;20645;-83
2022/12/24 09:58:24;;;;;;;41.40;7.28;;;9.60;99.90;;;;;;5975294;23;20544;-83
2022/12/24 10:00:51;;;;;;;40.42;7.28;;;9.60;99.90;;;;;;5996541;23;20026;-83
2022/12/24 10:03:17;;;;;;;39.25;6.97;;;9.60;99.90;;;;;;5996459;23;20027;-83
2022/12/24 10:05:52;;;;;;;32.47;5.95;;;9.60;99.90;;;;;;6020329;23;20023;-82
2022/12/24 10:08:28;;;;;;;37.25;7.00;;;9.70;99.90;;;;;;6043914;23;20015;-83
2022/12/24 10:11:11;;;;;;;38.58;6.93;;;9.70;99.90;;;;;;5974950;23;20264;-84
2022/12/24 10:13:56;;;;;;;35.88;7.60;;;9.70;99.90;;;;;;5973673;23;20376;-83
2022/12/24 10:16:54;;;;;;;33.13;6.80;;;9.70;99.90;;;;;;6044882;23;20018;-83
2022/12/24 10:19:41;;;;;;;36.75;7.00;;;9.70;99.90;;;;;;5976904;23;20015;-83
2022/12/24 10:22:24;;;;;;;44.65;6.47;;;9.80;99.90;;;;;;6048135;23;20452;-83
2022/12/24 10:25:06;;;;;;;35.90;5.82;;;9.90;99.90;;;;;;6045844;23;20413;-83
2022/12/24 10:27:37;;;;;;;21.95;5.68;;;9.90;99.90;;;;;;6047441;23;20022;-83
2022/12/24 10:30:18;;;;;;;31.20;5.18;;;9.90;99.90;;;;;;5974608;23;20022;-83
2022/12/24 10:32:48;;;;;;;33.53;5.72;;;9.90;99.90;;;;;;5974405;23;20015;-84
2022/12/24 10:35:13;;;;;;;23.00;4.40;;;9.90;99.90;;;;;;5975329;23;20051;-83
2022/12/24 10:37:41;;;;;;;25.48;4.88;;;9.90;99.90;;;;;;6046626;23;20564;-83
2022/12/24 10:40:22;;;;;;;23.60;4.97;;;9.90;99.90;;;;;;5973692;23;20020;-83
2022/12/24 10:42:47;;;;;;;32.42;5.53;;;9.90;99.90;;;;;;5998670;23;20118;-83
2022/12/24 10:45:17;;;;;;;22.88;4.63;;;9.90;99.90;;;;;;5973634;23;20054;-83
2022/12/24 10:47:46;;;;;;;27.38;5.25;;;9.90;99.90;;;;;;5973541;23;20099;-84
2022/12/24 10:50:20;;;;;;;24.67;5.00;;;9.90;99.90;;;;;;5995815;23;20020;-83
2022/12/24 10:52:46;;;;;;;26.95;4.97;;;9.90;99.90;;;;;;5996593;23;20297;-83
2022/12/24 10:55:18;;;;;;;27.88;5.85;;;9.90;99.90;;;;;;5973371;23;20573;-83
2022/12/24 10:57:46;;;;;;;21.15;5.60;;;10.00;99.90;;;;;;6045496;23;20019;-83
2022/12/24 11:00:21;;;;;;;30.67;6.40;;;10.00;99.90;;;;;;5972819;23;20046;-83
2022/12/24 11:02:48;;;;;;;29.85;5.32;;;10.00;99.90;;;;;;6017053;23;20024;-83
2022/12/24 11:05:35;;;;;;;27.58;5.18;;;10.10;99.90;;;;;;6019832;23;20015;-83
2022/12/24 11:08:18;;;;;;;30.42;6.00;;;10.10;99.90;;;;;;6043860;23;20019;-83
2022/12/24 11:10:57;;;;;;;32.50;6.30;;;10.00;99.90;;;;;;6069099;23;20364;-82
2022/12/24 11:13:31;;;;;;;27.27;6.03;;;10.10;99.90;;;;;;5996554;23;20015;-82
2022/12/24 11:16:16;;;;;;;26.45;5.70;;;10.10;99.90;;;;;;6022439;23;20318;-83
2022/12/24 11:18:49;;;;;;;;;;;10.10;99.90;;;;;;6023776;23;20011;-83
2022/12/24 11:21:25;;;;;;;26.40;5.95;;;10.10;99.90;;;;;;6070937;23;19929;-83
2022/12/24 11:23:57;;;;;;;27.27;5.65;;;10.10;99.90;;;;;;6023306;23;20065;-83
2022/12/24 11:26:29;;;;;;;28.08;5.53;;;10.10;99.90;;;;;;5999578;23;20272;-83
2022/12/24 11:29:16;;;;;;;32.38;5.35;;;10.10;99.90;;;;;;5999236;23;20392;-83
2022/12/24 11:31:43;;;;;;;27.15;5.00;;;10.10;99.90;;;;;;6021728;23;20122;-83
2022/12/24 11:34:23;;;;;;;25.75;4.72;;;10.10;99.90;;;;;;6023513;23;20019;-83
2022/12/24 11:36:51;;;;;;;22.20;5.50;;;10.00;99.90;;;;;;6024154;23;20070;-83
2022/12/24 11:39:21;;;;;;;26.50;4.82;;;10.00;99.90;;;;;;5999764;23;20098;-83
2022/12/24 11:41:50;;;;;;;24.77;4.35;;;10.00;99.90;;;;;;6047559;23;20152;-83
2022/12/24 11:44:26;;;;;;;27.23;5.22;;;9.90;99.90;;;;;;6044902;23;20465;-83
2022/12/24 11:46:55;;;;;;;25.98;4.82;;;9.90;99.90;;;;;;5998205;23;20023;-82
2022/12/24 11:49:27;;;;;;;31.48;5.38;;;10.00;99.90;;;;;;6051455;23;20046;-81
2022/12/24 11:52:02;;;;;;;27.23;4.57;;;10.00;99.90;;;;;;5999702;23;20015;-89
2022/12/24 11:54:34;;;;;;;25.70;4.30;;;10.00;99.90;;;;;;6025041;23;20019;-89
2022/12/24 11:57:01;;;;;;;20.50;4.65;;;9.90;99.90;;;;;;6001635;23;20023;-89
2022/12/24 11:59:40;;;;;;;22.33;4.88;;;10.00;99.90;;;;;;6000825;23;20303;-89
2022/12/24 12:02:14;;;;;;;27.48;5.93;;;10.00;99.90;;;;;;5999728;23;20035;-89
2022/12/24 12:04:43;;;;;;;21.08;4.38;;;10.00;99.90;;;;;;6024434;23;20104;-90
2022/12/24 12:07:19;;;;;;;25.67;4.28;;;10.00;99.90;;;;;;6048039;23;20449;-89
2022/12/24 12:10:09;;;;;;;25.30;4.88;;;10.00;99.90;;;;;;6048340;23;20109;-89
2022/12/24 12:12:39;;;;;;;28.45;4.65;;;10.00;99.90;;;;;;6000043;23;20023;-89
2022/12/24 12:15:12;;;;;;;27.60;5.60;;;10.00;99.90;;;;;;6000134;23;20017;-89
2022/12/24 12:17:59;;;;;;;24.33;4.40;;;10.00;99.90;;;;;;6048764;23;20091;-89
2022/12/24 12:20:55;;;;;;;26.98;4.90;;;9.90;99.90;;;;;;6003007;23;20019;-89
2022/12/24 12:23:32;;;;;;;29.38;4.65;;;9.90;99.90;;;;;;6001628;23;20019;-89
2022/12/24 12:25:58;;;;;;;22.27;4.28;;;9.90;99.90;;;;;;6000337;23;20598;-88
2022/12/24 12:28:39;;;;;;;20.02;4.22;;;9.90;99.90;;;;;;6024567;23;20338;-89
2022/12/24 12:31:14;;;;;;;30.20;5.68;;;9.90;99.90;;;;;;6000908;23;20023;-89
2022/12/24 12:34:10;;;;;;;26.23;5.75;;;10.00;99.90;;;;;;6000971;23;20011;-89
2022/12/24 12:36:48;;;;;;;21.05;3.92;;;10.00;99.90;;;;;;6001804;23;20023;-90
2022/12/24 12:39:13;;;;;;;24.77;3.92;;;9.90;99.90;;;;;;6001372;23;20020;-88
2022/12/24 12:41:57;;;;;;;22.80;4.47;;;9.90;99.90;;;;;;6000544;23;20025;-89
2022/12/24 12:44:33;;;;;;;23.20;5.47;;;9.90;99.90;;;;;;6023965;23;20208;-89
2022/12/24 12:46:59;;;;;;;21.52;4.72;;;9.90;99.90;;;;;;6022563;23;20043;-89
2022/12/24 12:49:50;;;;;;;21.88;4.25;;;9.90;99.90;;;;;;6026629;23;20471;-88
2022/12/24 12:53:01;;;;;;;20.92;3.97;;;9.90;99.90;;;;;;6024942;23;20019;-90
2022/12/24 12:55:26;;;;;;;28.80;4.60;;;10.00;99.90;;;;;;5979431;23;20019;-89
2022/12/24 12:57:58;;;;;;;23.23;4.55;;;10.00;99.90;;;;;;6025279;23;20016;-90
2022/12/24 13:00:25;;;;;;;17.98;4.88;;;10.00;99.90;;;;;;5999892;23;20143;-89
2022/12/24 13:03:18;;;;;;;19.48;4.20;;;9.90;99.90;;;;;;6001051;23;20098;-89
2022/12/24 13:06:04;;;;;;;23.65;4.70;;;9.90;99.90;;;;;;6072164;23;20178;-89